Hallum, Netherlands
Current Conditions -  °F | °C
As of 2:25 AM on Wednesday 22 Oct 2014 (Local Time) from EHLW Reporting Station
Scattered Clouds Scattered Clouds  
Wind Chill: 52°   Ceiling: Unl
Heat Index: 52°   Visibility: 6mi
Dew Point: 41°   Wind: 26mph
Humidity: 67%   Direction: 310°NW
Pressure: 29.71"   Gusts: NA
Location:  53.31°N, 5.78°E
Report Text: EHLW 220025Z AUTO 31023KT 9999 FEW031 SCT051 11/05 Q1006 BLU
Loading
Personal Weather Stations






























Interactive Weather Map
Tropical Storm Tracking
New forecast layout! Learn more

10-Day Weather Forecast

Advertisements
Track Severe Weather on mobile